.
WxDataArchive / Data Records for 2006-10-23
2006-10-22 October 2006 2006-10-24

Data Records for Monday, 23 October 2006

Time	Temp	Chill	HIndex	Humid	Dewpt	 Wind 	HiWind	WindDir	Rain 	Barom 
-----	----	-----	------	-----	-----	------	------	-------	-----	----- 
00:00	36.8	36.8	36.8	66	26.5	2	4	248	0.00	29.968 
00:05	36.8	36.8	36.8	66	26.5	2	4	248	0.00	29.968 
00:10	36.6	36.6	36.6	65	26.0	2	5	270	0.00	29.968 
00:15	36.6	36.6	36.6	66	26.3	2	4	270	0.00	29.966 
00:20	36.5	36.5	36.5	64	25.5	2	5	248	0.00	29.966 
00:25	36.5	36.5	36.5	66	26.2	1	4	248	0.00	29.966 
00:30	36.3	36.3	36.3	66	26.0	1	4	248	0.00	29.963 
00:35	36.3	36.3	36.3	66	26.0	1	3	270	0.00	29.963 
00:40	36.3	36.3	36.3	65	25.7	2	6	248	0.00	29.963 
00:45	36.3	36.3	36.3	65	25.7	2	4	270	0.00	29.958 
00:50	36.2	36.2	36.2	65	25.6	2	5	270	0.00	29.958 
00:55	36.2	36.2	36.2	65	25.6	2	4	270	0.00	29.958 
01:00	36.0	36.0	36.0	65	25.4	2	6	248	0.00	29.955 
01:05	36.0	36.0	36.0	65	25.4	2	5	270	0.00	29.955 
01:10	35.9	35.9	35.9	66	25.7	1	3	248	0.00	29.955 
01:15	35.9	35.9	35.9	66	25.7	2	4	248	0.00	29.954 
01:20	35.8	35.8	35.8	66	25.6	2	4	270	0.00	29.954 
01:25	35.8	35.8	35.8	66	25.6	2	5	248	0.00	29.954 
01:30	35.8	35.8	35.8	67	25.9	2	4	270	0.00	29.955 
01:35	35.6	35.6	35.6	67	25.7	1	4	248	0.00	29.955 
01:40	35.6	35.6	35.6	67	25.7	1	5	270	0.00	29.955 
01:45	35.6	35.6	35.6	68	26.1	1	3	248	0.00	29.954 
01:50	35.5	35.5	35.5	68	26.0	1	2	248	0.00	29.954 
01:55	35.5	35.5	35.5	67	25.6	1	3	270	0.00	29.954 
02:00	35.5	35.5	35.5	68	26.0	1	3	248	0.00	29.953 
02:05	35.5	35.5	35.5	69	26.4	0	2	248	0.00	29.953 
02:10	35.5	35.5	35.5	69	26.4	0	1	248	0.00	29.953 
02:15	35.3	35.3	35.3	69	26.2	1	2	248	0.00	29.952 
02:20	35.3	35.3	35.3	69	26.2	1	2	248	0.00	29.952 
02:25	35.3	35.3	35.3	69	26.2	0	3	248	0.00	29.952 
02:30	35.2	35.2	35.2	70	26.4	1	2	292	0.00	29.952 
02:35	35.2	35.2	35.2	69	26.1	1	3	292	0.00	29.952 
02:40	35.2	35.2	35.2	69	26.1	1	4	270	0.00	29.952 
02:45	35.2	35.2	35.2	69	26.1	1	3	270	0.00	29.951 
02:50	35.2	35.2	35.2	70	26.4	1	2	248	0.00	29.951 
02:55	35.2	35.2	35.2	70	26.4	1	2	248	0.00	29.951 
03:00	35.3	35.3	35.3	70	26.5	1	3	270	0.00	29.952 
03:05	35.3	35.3	35.3	69	26.2	1	4	248	0.00	29.952 
03:10	35.3	35.3	35.3	69	26.2	2	4	248	0.00	29.952 
03:15	35.3	35.3	35.3	69	26.2	1	3	248	0.00	29.952 
03:20	35.3	35.3	35.3	69	26.2	2	4	248	0.00	29.952 
03:25	35.2	35.2	35.2	69	26.1	2	3	248	0.00	29.952 
03:30	35.2	35.2	35.2	69	26.1	1	4	248	0.00	29.951 
03:35	35.2	35.2	35.2	69	26.1	1	4	248	0.00	29.951 
03:40	35.2	35.2	35.2	69	26.1	1	4	248	0.00	29.951 
03:45	35.2	35.2	35.2	68	25.7	2	6	270	0.00	29.949 
03:50	35.2	35.2	35.2	68	25.7	1	3	248	0.00	29.949 
03:55	35.2	35.2	35.2	68	25.7	2	4	292	0.00	29.949 
04:00	35.2	35.2	35.2	69	26.1	1	3	270	0.00	29.946 
04:05	35.2	35.2	35.2	68	25.7	1	3	248	0.00	29.946 
04:10	35.0	35.0	35.0	68	25.5	2	6	270	0.00	29.946 
04:15	35.0	35.0	35.0	67	25.2	2	3	248	0.00	29.947 
04:20	35.0	35.0	35.0	68	25.5	1	3	270	0.00	29.947 
04:25	35.0	35.0	35.0	68	25.5	1	3	270	0.00	29.947 
04:30	35.0	35.0	35.0	67	25.2	1	4	270	0.00	29.946 
04:35	35.0	35.0	35.0	68	25.5	2	4	248	0.00	29.946 
04:40	34.9	34.9	34.9	68	25.4	1	3	270	0.00	29.946 
04:45	34.9	34.9	34.9	67	25.1	1	4	248	0.00	29.943 
04:50	34.9	34.9	34.9	67	25.1	1	4	248	0.00	29.943 
04:55	34.7	34.7	34.7	67	24.9	1	3	248	0.00	29.943 
05:00	34.7	34.7	34.7	68	25.2	1	3	248	0.00	29.942 
05:05	34.7	34.7	34.7	67	24.9	1	3	248	0.00	29.942 
05:10	34.7	34.7	34.7	67	24.9	1	3	270	0.00	29.942 
05:15	34.7	34.7	34.7	67	24.9	1	3	248	0.00	29.941 
05:20	34.6	34.6	34.6	66	24.4	1	4	270	0.00	29.941 
05:25	34.6	34.6	34.6	66	24.4	1	3	270	0.00	29.941 
05:30	34.6	34.6	34.6	66	24.4	1	4	248	0.00	29.943 
05:35	34.6	34.6	34.6	66	24.4	1	3	248	0.00	29.943 
05:40	34.4	34.4	34.4	65	23.9	2	4	248	0.00	29.943 
05:45	34.6	34.6	34.6	65	24.1	2	4	270	0.00	29.947 
05:50	34.4	34.4	34.4	64	23.5	1	4	248	0.00	29.947 
05:55	34.4	34.4	34.4	64	23.5	1	4	248	0.00	29.947 
06:00	34.4	34.4	34.4	63	23.1	2	5	270	0.00	29.957 
06:05	34.4	34.4	34.4	63	23.1	1	3	248	0.00	29.957 
06:10	34.4	34.4	34.4	63	23.1	2	4	248	0.00	29.957 
06:15	34.4	34.4	34.4	63	23.1	2	5	248	0.00	29.958 
06:20	34.3	34.3	34.3	63	23.0	2	4	270	0.00	29.958 
06:25	34.3	34.3	34.3	63	23.0	2	4	248	0.00	29.958 
06:30	34.3	34.3	34.3	63	23.0	1	6	270	0.00	29.960 
06:35	34.3	34.3	34.3	63	23.0	1	3	270	0.00	29.960 
06:40	34.3	34.3	34.3	62	22.7	2	4	270	0.00	29.960 
06:45	34.1	34.1	34.1	62	22.5	2	4	270	0.00	29.962 
06:50	34.1	34.1	34.1	63	22.8	1	4	248	0.00	29.962 
06:55	34.1	34.1	34.1	63	22.8	2	4	270	0.00	29.962 
07:00	34.1	34.1	34.1	62	22.5	1	5	270	0.00	29.971 
07:05	34.1	34.1	34.1	62	22.5	2	3	248	0.00	29.971 
07:10	34.1	34.1	34.1	63	22.8	1	4	248	0.00	29.971 
07:15	34.1	34.1	34.1	62	22.5	1	4	248	0.00	29.973 
07:20	34.0	34.0	34.0	63	22.7	1	3	270	0.00	29.973 
07:25	34.0	34.0	34.0	62	22.4	1	2	270	0.00	29.973 
07:30	34.0	34.0	34.0	63	22.7	1	3	270	0.00	29.975 
07:35	34.1	34.1	34.1	63	22.8	1	3	270	0.00	29.975 
07:40	34.1	34.1	34.1	63	22.8	1	2	270	0.00	29.975 
07:45	34.1	34.1	34.1	62	22.5	1	2	270	0.00	29.975 
07:50	34.1	34.1	34.1	63	22.8	1	2	292	0.00	29.975 
07:55	34.1	34.1	34.1	62	22.5	1	3	292	0.00	29.975 
08:00	34.1	34.1	34.1	62	22.5	1	4	248	0.00	29.976 
08:05	34.1	34.1	34.1	62	22.5	1	3	248	0.00	29.976 
08:10	34.1	34.1	34.1	62	22.5	1	3	270	0.00	29.976 
08:15	34.1	34.1	34.1	62	22.5	1	2	248	0.00	29.979 
08:20	34.1	34.1	34.1	62	22.5	1	2	248	0.00	29.979 
08:25	34.1	34.1	34.1	63	22.8	1	3	248	0.00	29.979 
08:30	34.1	34.1	34.1	62	22.5	1	2	248	0.00	29.979 
08:35	34.1	34.1	34.1	63	22.8	1	3	270	0.00	29.979 
08:40	34.1	34.1	34.1	63	22.8	0	3	248	0.00	29.979 
08:45	34.1	34.1	34.1	63	22.8	1	3	248	0.00	29.983 
08:50	34.1	34.1	34.1	63	22.8	1	3	270	0.00	29.983 
08:55	34.1	34.1	34.1	63	22.8	2	4	270	0.00	29.983 
09:00	34.3	34.3	34.3	63	23.0	1	4	248	0.00	29.988 
09:05	34.3	34.3	34.3	63	23.0	1	3	248	0.00	29.988 
09:10	34.3	34.3	34.3	64	23.4	1	5	270	0.00	29.988 
09:15	34.3	34.3	34.3	64	23.4	2	5	248	0.00	29.991 
09:20	34.3	34.3	34.3	64	23.4	2	3	248	0.00	29.991 
09:25	34.3	34.3	34.3	65	23.8	1	3	248	0.00	29.991 
09:30	34.3	34.3	34.3	65	23.8	1	4	248	0.00	29.995 
09:35	34.3	34.3	34.3	65	23.8	1	6	248	0.00	29.995 
09:40	34.3	34.3	34.3	65	23.8	1	3	270	0.00	29.995 
09:45	34.3	34.3	34.3	66	24.1	1	2	270	0.00	30.002 
09:50	34.4	34.4	34.4	67	24.6	1	3	270	0.00	30.002 
09:55	34.4	34.4	34.4	66	24.2	2	4	248	0.00	30.002 
10:00	34.4	34.4	34.4	66	24.2	2	4	270	0.00	30.005 
10:05	34.6	34.6	34.6	67	24.8	1	2	270	0.00	30.005 
10:10	34.7	34.7	34.7	67	24.9	1	2	270	0.00	30.005 
10:15	34.9	34.9	34.9	67	25.1	1	2	270	0.00	30.005 
10:20	35.0	35.0	35.0	66	24.8	1	3	248	0.00	30.005 
10:25	35.0	35.0	35.0	66	24.8	1	4	248	0.00	30.005 
10:30	35.2	35.2	35.2	67	25.4	2	5	270	0.00	30.005 
10:35	35.3	35.3	35.3	66	25.1	2	5	270	0.00	30.005 
10:40	35.3	35.3	35.3	67	25.5	2	4	270	0.00	30.005 
10:45	35.3	35.3	35.3	67	25.5	1	3	270	0.00	30.004 
10:50	35.5	35.5	35.5	67	25.6	2	4	270	0.00	30.004 
10:55	35.6	35.6	35.6	67	25.7	2	4	292	0.00	30.004 
11:00	35.6	35.6	35.6	67	25.7	2	4	270	0.00	30.000 
11:05	35.8	35.8	35.8	67	25.9	1	5	248	0.00	30.000 
11:10	35.9	35.9	35.9	67	26.0	2	5	248	0.00	30.000 
11:15	36.0	36.0	36.0	67	26.1	1	3	270	0.00	29.998 
11:20	36.3	36.3	36.3	66	26.0	1	4	270	0.00	29.998 
11:25	36.6	36.6	36.6	66	26.3	2	4	248	0.00	29.998 
11:30	36.8	36.8	36.8	65	26.2	2	5	248	0.00	29.993 
11:35	36.9	36.9	36.9	64	25.9	3	5	270	0.00	29.993 
11:40	37.0	37.0	37.0	62	25.2	2	6	270	0.00	29.993 
11:45	37.3	37.3	37.3	62	25.5	2	5	248	0.00	29.994 
11:50	37.8	37.8	37.8	62	26.0	2	5	248	0.00	29.994 
11:55	37.9	37.9	37.9	60	25.3	3	6	270	0.00	29.994 
12:00	38.2	38.2	38.2	62	26.3	2	4	270	0.00	29.993 
12:05	38.6	38.6	38.6	64	27.5	2	6	248	0.00	29.993 
12:10	38.8	38.8	38.8	61	26.5	2	5	270	0.00	29.993 
12:15	38.5	38.5	38.5	62	26.6	2	4	270	0.00	29.996 
12:20	38.2	38.2	38.2	64	27.1	3	5	270	0.00	29.996 
12:25	38.2	38.2	38.2	64	27.1	2	4	270	0.00	29.996 
12:30	38.2	38.2	38.2	65	27.5	2	10	270	0.00	30.000 
12:35	38.3	38.3	38.3	65	27.6	2	5	270	0.00	30.000 
12:40	38.3	38.3	38.3	65	27.6	2	7	270	0.00	30.000 
12:45	38.3	38.3	38.3	65	27.6	2	5	270	0.00	30.001 
12:50	38.3	38.3	38.3	65	27.6	3	6	270	0.00	30.001 
12:55	38.0	38.0	38.0	65	27.3	2	5	270	0.00	30.001 
13:00	37.8	37.8	37.8	65	27.1	2	4	248	0.00	30.000 
13:05	37.6	37.6	37.6	65	26.9	3	5	270	0.00	30.000 
13:10	37.8	37.8	37.8	66	27.5	2	6	270	0.00	30.000 
13:15	37.8	37.8	37.8	63	26.4	3	5	270	0.00	29.994 
13:20	37.9	37.9	37.9	64	26.8	3	7	248	0.00	29.994 
13:25	37.9	37.9	37.9	64	26.8	2	5	270	0.00	29.994 
13:30	38.2	38.2	38.2	63	26.7	2	5	248	0.00	29.989 
13:35	38.3	38.3	38.3	60	25.6	3	6	270	0.00	29.989 
13:40	38.5	38.5	38.5	62	26.6	1	4	248	0.00	29.989 
13:45	38.9	38.9	38.9	62	27.0	1	3	270	0.00	29.988 
13:50	39.1	39.1	39.1	60	26.4	3	6	270	0.00	29.988 
13:55	39.2	39.2	39.2	59	26.1	3	10	270	0.00	29.988 
14:00	39.3	36.5	39.3	59	26.2	4	7	270	0.00	29.980 
14:05	39.5	39.5	39.5	60	26.8	2	4	270	0.00	29.980 
14:10	39.6	39.6	39.6	59	26.5	3	9	270	0.00	29.980 
14:15	39.8	39.8	39.8	60	27.1	2	6	270	0.00	29.976 
14:20	39.5	39.5	39.5	59	26.4	3	4	270	0.00	29.976 
14:25	39.3	39.3	39.3	60	26.6	3	5	270	0.00	29.976 
14:30	39.3	39.3	39.3	60	26.6	2	6	270	0.00	29.973 
14:35	39.3	39.3	39.3	62	27.4	2	4	248	0.00	29.973 
14:40	39.3	39.3	39.3	62	27.4	2	6	248	0.00	29.973 
14:45	39.5	39.5	39.5	61	27.2	2	5	270	0.00	29.972 
14:50	39.3	39.3	39.3	61	27.0	2	5	270	0.00	29.972 
14:55	39.3	39.3	39.3	60	26.6	2	5	270	0.00	29.972 
15:00	39.3	39.3	39.3	60	26.6	2	4	270	0.00	29.972 
15:05	39.2	39.2	39.2	59	26.1	3	6	270	0.00	29.972 
15:10	39.1	36.3	39.1	60	26.4	4	6	270	0.00	29.972 
15:15	39.1	39.1	39.1	62	27.2	2	4	270	0.00	29.973 
15:20	39.1	39.1	39.1	61	26.8	2	7	270	0.00	29.973 
15:25	39.1	39.1	39.1	60	26.4	2	4	270	0.00	29.973 
15:30	39.1	39.1	39.1	60	26.4	3	5	270	0.00	29.972 
15:35	38.9	38.9	38.9	60	26.2	3	6	270	0.00	29.972 
15:40	39.1	39.1	39.1	61	26.8	2	5	270	0.00	29.972 
15:45	39.1	39.1	39.1	59	26.0	3	6	270	0.00	29.973 
15:50	39.1	39.1	39.1	60	26.4	2	5	270	0.00	29.973 
15:55	39.2	39.2	39.2	60	26.5	2	5	248	0.00	29.973 
16:00	39.1	39.1	39.1	59	26.0	2	4	270	0.00	29.974 
16:05	38.9	38.9	38.9	59	25.8	3	5	270	0.00	29.974 
16:10	38.9	38.9	38.9	60	26.2	2	4	270	0.00	29.974 
16:15	38.8	38.8	38.8	58	25.3	3	7	270	0.00	29.974 
16:20	38.8	38.8	38.8	59	25.7	3	6	270	0.00	29.974 
16:25	38.9	38.9	38.9	59	25.8	3	5	270	0.00	29.974 
16:30	39.1	39.1	39.1	59	26.0	2	5	248	0.00	29.973 
16:35	39.2	39.2	39.2	61	26.9	1	4	248	0.00	29.973 
16:40	39.2	39.2	39.2	60	26.5	3	5	270	0.00	29.973 
16:45	39.1	39.1	39.1	59	26.0	3	6	270	0.00	29.974 
16:50	39.1	39.1	39.1	60	26.4	2	4	270	0.00	29.974 
16:55	39.1	39.1	39.1	60	26.4	3	5	270	0.00	29.974 
17:00	38.9	38.9	38.9	61	26.6	2	4	270	0.00	29.976 
17:05	38.9	38.9	38.9	62	27.0	2	6	270	0.00	29.976 
17:10	38.9	38.9	38.9	61	26.6	2	5	270	0.00	29.976 
17:15	38.9	38.9	38.9	62	27.0	3	8	270	0.00	29.980 
17:20	39.1	39.1	39.1	61	26.8	2	6	248	0.00	29.980 
17:25	39.1	39.1	39.1	60	26.4	2	5	248	0.00	29.980 
17:30	39.1	39.1	39.1	61	26.8	2	4	270	0.00	29.980 
17:35	39.2	39.2	39.2	61	26.9	2	4	270	0.00	29.980 
17:40	39.2	39.2	39.2	61	26.9	2	5	292	0.00	29.980 
17:45	39.2	39.2	39.2	61	26.9	2	4	270	0.00	29.983 
17:50	39.2	39.2	39.2	60	26.5	2	6	270	0.00	29.983 
17:55	39.1	39.1	39.1	61	26.8	2	4	270	0.00	29.983 
18:00	39.1	39.1	39.1	61	26.8	1	3	270	0.00	29.985 
18:05	39.1	39.1	39.1	61	26.8	1	3	248	0.00	29.985 
18:10	39.1	39.1	39.1	62	27.2	1	2	248	0.00	29.985 
18:15	38.9	38.9	38.9	62	27.0	1	3	248	0.00	29.985 
18:20	38.9	38.9	38.9	62	27.0	1	4	248	0.00	29.985 
18:25	39.1	39.1	39.1	61	26.8	1	2	248	0.00	29.985 
18:30	39.1	39.1	39.1	62	27.2	1	4	248	0.00	29.986 
18:35	39.1	39.1	39.1	62	27.2	0	2	248	0.00	29.986 
18:40	39.1	39.1	39.1	63	27.6	0	1	248	0.00	29.986 
18:45	39.1	39.1	39.1	63	27.6	1	4	248	0.00	29.989 
18:50	39.1	39.1	39.1	62	27.2	1	3	270	0.00	29.989 
18:55	39.3	39.3	39.3	62	27.4	1	3	270	0.00	29.989 
19:00	39.3	39.3	39.3	61	27.0	2	5	270	0.00	29.990 
19:05	39.3	39.3	39.3	61	27.0	1	3	270	0.00	29.990 
19:10	39.3	39.3	39.3	61	27.0	2	4	270	0.00	29.990 
19:15	39.3	39.3	39.3	62	27.4	1	3	315	0.00	29.991 
19:20	39.2	39.2	39.2	62	27.3	1	4	248	0.00	29.991 
19:25	39.2	39.2	39.2	62	27.3	1	4	315	0.00	29.991 
19:30	39.1	39.1	39.1	62	27.2	1	3	315	0.00	29.991 
19:35	39.1	39.1	39.1	62	27.2	1	3	292	0.00	29.991 
19:40	39.1	39.1	39.1	63	27.6	0	2	292	0.00	29.991 
19:45	38.9	38.9	38.9	62	27.0	0	2	292	0.00	29.991 
19:50	38.9	38.9	38.9	62	27.0	0	1	292	0.00	29.991 
19:55	38.9	38.9	38.9	62	27.0	1	2	292	0.00	29.991 
20:00	38.9	38.9	38.9	62	27.0	0	2	270	0.00	29.994 
20:05	38.9	38.9	38.9	62	27.0	1	3	270	0.00	29.994 
20:10	38.9	38.9	38.9	62	27.0	0	1	270	0.00	29.994 
20:15	38.9	38.9	38.9	62	27.0	0	1	270	0.00	29.999 
20:20	38.9	38.9	38.9	63	27.4	0	1	270	0.00	29.999 
20:25	38.8	38.8	38.8	63	27.3	0	2	270	0.00	29.999 
20:30	38.8	38.8	38.8	63	27.3	1	3	270	0.00	29.999 
20:35	38.9	38.9	38.9	63	27.4	0	3	248	0.00	29.999 
20:40	38.9	38.9	38.9	63	27.4	1	4	248	0.00	29.999 
20:45	38.8	38.8	38.8	63	27.3	0	3	248	0.00	30.003 
20:50	38.8	38.8	38.8	64	27.7	1	3	248	0.00	30.003 
20:55	38.8	38.8	38.8	64	27.7	1	3	248	0.00	30.003 
21:00	38.8	38.8	38.8	64	27.7	1	3	248	0.00	30.003 
21:05	38.8	38.8	38.8	64	27.7	1	3	248	0.00	30.003 
21:10	38.9	38.9	38.9	63	27.4	1	4	248	0.00	30.003 
21:15	38.9	38.9	38.9	63	27.4	1	4	270	0.00	30.001 
21:20	38.9	38.9	38.9	63	27.4	1	4	248	0.00	30.001 
21:25	38.8	38.8	38.8	63	27.3	0	2	315	0.00	30.001 
21:30	38.8	38.8	38.8	63	27.3	1	2	270	0.00	30.003 
21:35	38.8	38.8	38.8	64	27.7	1	2	248	0.00	30.003 
21:40	38.8	38.8	38.8	63	27.3	1	4	270	0.00	30.003 
21:45	38.8	38.8	38.8	63	27.3	1	3	270	0.00	30.003 
21:50	38.8	38.8	38.8	63	27.3	1	3	270	0.00	30.003 
21:55	38.8	38.8	38.8	63	27.3	1	4	248	0.00	30.003 
22:00	38.8	38.8	38.8	63	27.3	2	4	248	0.00	30.004 
22:05	38.8	38.8	38.8	63	27.3	1	3	248	0.00	30.004 
22:10	38.6	38.6	38.6	63	27.1	0	2	248	0.00	30.004 
22:15	38.6	38.6	38.6	64	27.5	1	2	248	0.00	30.002 
22:20	38.6	38.6	38.6	64	27.5	1	3	248	0.00	30.002 
22:25	38.5	38.5	38.5	64	27.4	1	4	248	0.00	30.002 
22:30	38.5	38.5	38.5	65	27.8	1	3	270	0.00	30.001 
22:35	38.5	38.5	38.5	64	27.4	1	3	248	0.00	30.001 
22:40	38.3	38.3	38.3	65	27.6	1	4	248	0.00	30.001 
22:45	38.3	38.3	38.3	65	27.6	1	4	248	0.00	29.994 
22:50	38.3	38.3	38.3	64	27.2	2	4	248	0.00	29.994 
22:55	38.3	38.3	38.3	64	27.2	1	4	248	0.00	29.994 
23:00	38.2	38.2	38.2	64	27.1	1	2	248	0.00	29.999 
23:05	38.2	38.2	38.2	64	27.1	1	2	248	0.00	29.999 
23:10	38.0	38.0	38.0	63	26.5	1	3	248	0.00	29.999 
23:15	38.0	38.0	38.0	63	26.5	1	3	248	0.00	29.996 
23:20	37.9	37.9	37.9	63	26.4	1	3	248	0.00	29.996 
23:25	37.9	37.9	37.9	64	26.8	0	2	248	0.00	29.996 
23:30	37.8	37.8	37.8	62	26.0	1	3	248	0.00	29.997 
23:35	37.8	37.8	37.8	62	26.0	1	3	248	0.00	29.997 
23:40	37.8	37.8	37.8	63	26.4	1	2	248	0.00	29.997 
23:45	37.6	37.6	37.6	62	25.8	1	3	248	0.00	29.997 
23:50	37.8	37.8	37.8	62	26.0	1	4	248	0.00	29.997 
23:55	37.8	37.8	37.8	62	26.0	1	3	248	0.00	29.997 

CoCoRaHS
IN-AL-39
A2 Web Hosting
Creative Commons License
GoDaddy
Look for:

loaded 2017-10-18 07:27:13 • last modified 2010-11-18 10:43:29
Privacy PolicyDisclaimer
• wx.awcolley.com is powered by PmWiki v.2002016 •
• all content (unless otherwise noted) © 2017 A W Colley